createdAt,value
2022-08-19T00:01:43.813Z,96904.59
2022-08-19T00:04:13.468Z,96911.53
2022-08-19T00:06:42.345Z,96911.97
2022-08-19T00:09:12.201Z,96918.09
2022-08-19T00:11:38.844Z,96927.47
2022-08-19T00:14:07.103Z,96927.63
2022-08-19T00:16:33.939Z,96925.41
2022-08-19T00:19:00.577Z,96929.69
2022-08-19T00:21:27.699Z,96922.16
2022-08-19T00:23:55.867Z,96921.19
2022-08-19T00:26:22.485Z,96920.38
2022-08-19T00:28:49.087Z,96922.63
2022-08-19T00:31:16.507Z,96919.09
2022-08-19T00:33:43.857Z,96912.38
2022-08-19T00:36:11.040Z,96914.72
2022-08-19T00:38:40.230Z,96919.66
2022-08-19T00:41:07.075Z,96928.50
2022-08-19T00:43:34.414Z,96922.97
2022-08-19T00:46:02.410Z,96924.59
2022-08-19T00:48:29.001Z,96909.47
2022-08-19T00:50:56.500Z,96910.06
2022-08-19T00:53:26.084Z,96911.16
2022-08-19T00:55:54.759Z,96907.94
2022-08-19T00:58:24.218Z,96909.56
2022-08-19T01:00:50.772Z,96907.13
2022-08-19T01:03:20.246Z,96902.25
2022-08-19T01:05:48.924Z,96901.44
2022-08-19T01:08:17.610Z,96907.56
2022-08-19T01:10:59.149Z,96912.06
2022-08-19T01:13:28.385Z,96916.59
2022-08-19T01:16:12.291Z,96905.22
2022-08-19T01:18:42.051Z,96895.97
2022-08-19T01:21:39.135Z,96891.06
2022-08-19T01:24:05.999Z,96888.41
2022-08-19T01:26:32.765Z,96881.22
2022-08-19T01:29:01.973Z,96883.44
2022-08-19T01:31:33.255Z,96875.78
2022-08-19T01:34:01.130Z,96878.97
2022-08-19T01:36:34.378Z,96886.16
2022-08-19T01:39:04.035Z,96878.97
2022-08-19T01:41:30.577Z,96876.91
2022-08-19T01:44:13.681Z,96873.81
2022-08-19T01:46:44.641Z,96873.44
2022-08-19T01:49:11.386Z,96875.88
2022-08-19T01:51:40.488Z,96883.25
2022-08-19T01:54:09.055Z,96882.84
2022-08-19T01:56:35.701Z,96885.72
2022-08-19T01:59:10.125Z,96885.72
2022-08-19T02:01:36.808Z,96889.72
2022-08-19T02:04:03.728Z,96882.34
2022-08-19T02:06:30.803Z,96880.28
2022-08-19T02:08:57.980Z,96883.88
2022-08-19T02:11:32.313Z,96887.88
2022-08-19T02:13:59.434Z,96893.63
2022-08-19T02:16:25.954Z,96891.19
2022-08-19T02:18:52.505Z,96878.41
2022-08-19T02:21:20.824Z,96887.22
2022-08-19T02:23:47.779Z,96878.22
2022-08-19T02:26:14.974Z,96887.59
2022-08-19T02:28:42.591Z,96883.97
2022-08-19T02:31:14.180Z,96886.94
2022-08-19T02:33:40.735Z,96889.31
2022-08-19T02:36:08.744Z,96889.53
2022-08-19T02:38:36.153Z,96884.97
2022-08-19T02:41:08.152Z,96876.41
2022-08-19T02:43:39.555Z,96880.97
2022-08-19T02:46:23.467Z,96873.41
2022-08-19T02:48:51.158Z,96862.63
2022-08-19T02:51:25.173Z,96869.19
2022-08-19T02:53:52.008Z,96858.88
2022-08-19T02:56:19.331Z,96860.78
2022-08-19T02:58:46.078Z,96870.00
2022-08-19T03:01:22.063Z,96867.34
2022-08-19T03:03:48.663Z,96870.59
2022-08-19T03:06:16.473Z,96865.50
2022-08-19T03:08:44.806Z,96864.28
2022-08-19T03:11:33.663Z,96876.09
2022-08-19T03:14:01.048Z,96878.13
2022-08-19T03:16:29.524Z,96873.19
2022-08-19T03:19:01.049Z,96876.66
2022-08-19T03:21:32.550Z,96879.53
2022-08-19T03:24:02.453Z,96888.72
2022-08-19T03:26:29.417Z,96884.66
2022-08-19T03:28:58.148Z,96882.59
2022-08-19T03:31:44.794Z,96877.03
2022-08-19T03:34:21.040Z,96871.47
2022-08-19T03:36:48.264Z,96876.44
2022-08-19T03:39:15.564Z,96877.53
2022-08-19T03:41:45.595Z,96886.97
2022-08-19T03:44:21.746Z,96884.16
2022-08-19T03:46:50.265Z,96890.69
2022-08-19T03:49:18.464Z,96900.13
2022-08-19T03:51:46.482Z,96896.09
2022-08-19T03:54:15.091Z,96900.41
2022-08-19T03:56:42.755Z,96901.03
2022-08-19T03:59:14.493Z,96899.78
2022-08-19T04:01:41.194Z,96893.84
2022-08-19T04:04:07.783Z,96894.91
2022-08-19T04:06:39.524Z,96894.03
2022-08-19T04:09:09.382Z,96895.72
2022-08-19T04:11:44.525Z,96904.25
2022-08-19T04:14:20.842Z,96912.28
2022-08-19T04:16:48.883Z,96917.59
2022-08-19T04:19:16.582Z,96914.94
2022-08-19T04:21:48.617Z,96920.78
2022-08-19T04:24:16.008Z,96918.97
2022-08-19T04:26:42.598Z,96915.06
2022-08-19T04:29:15.172Z,96904.88
2022-08-19T04:31:44.401Z,96905.84
2022-08-19T04:34:13.884Z,96900.16
2022-08-19T04:36:42.211Z,96903.03
2022-08-19T04:39:12.759Z,96905.47
2022-08-19T04:41:58.010Z,96908.13
2022-08-19T04:44:24.638Z,96911.63
2022-08-19T04:46:52.284Z,96908.38
2022-08-19T04:49:23.281Z,96915.09
2022-08-19T04:51:51.124Z,96913.06
2022-08-19T04:54:33.810Z,96912.03
2022-08-19T04:57:07.892Z,96908.56
2022-08-19T04:59:34.887Z,96911.31
2022-08-19T05:02:01.904Z,96923.06
2022-08-19T05:04:29.723Z,96924.09
2022-08-19T05:07:00.083Z,96929.34
2022-08-19T05:09:52.557Z,96925.81
2022-08-19T05:12:16.616Z,96929.66
2022-08-19T05:14:44.527Z,96935.06
2022-08-19T05:17:27.159Z,96941.75
2022-08-19T05:20:14.498Z,96940.41
2022-08-19T05:22:42.503Z,96931.47
2022-08-19T05:25:13.905Z,96939.34
2022-08-19T05:27:42.013Z,96939.00
2022-08-19T05:30:09.387Z,96940.28
2022-08-19T05:32:36.086Z,96936.53
2022-08-19T05:35:02.757Z,96946.41
2022-08-19T05:37:29.299Z,96935.31
2022-08-19T05:39:55.978Z,96939.69
2022-08-19T05:42:24.050Z,96932.25
2022-08-19T05:44:51.488Z,96935.47
2022-08-19T05:47:19.922Z,96929.69
2022-08-19T05:49:46.647Z,96927.50
2022-08-19T05:52:16.396Z,96927.25
2022-08-19T05:54:51.129Z,96929.22
2022-08-19T05:57:18.378Z,96935.41
2022-08-19T05:59:47.214Z,96933.44
2022-08-19T06:02:15.131Z,96942.91
2022-08-19T06:04:43.791Z,96939.94
2022-08-19T06:07:12.619Z,96935.06
2022-08-19T06:09:40.463Z,96939.41
2022-08-19T06:12:07.685Z,96924.03
2022-08-19T06:14:41.836Z,96933.19
2022-08-19T06:17:09.274Z,96929.47
2022-08-19T06:19:40.524Z,96932.13
2022-08-19T06:22:08.448Z,96940.25
2022-08-19T06:24:36.381Z,96936.09
2022-08-19T06:27:06.588Z,96943.06
2022-08-19T06:29:33.644Z,96923.69
2022-08-19T06:32:02.359Z,96916.22
2022-08-19T06:34:30.537Z,96916.22
2022-08-19T06:37:00.161Z,96929.09
2022-08-19T06:39:29.452Z,96919.63
2022-08-19T06:41:58.953Z,96931.72
2022-08-19T06:44:29.398Z,96925.13
2022-08-19T06:46:58.464Z,96922.25
2022-08-19T06:49:26.044Z,96928.13
2022-08-19T06:51:52.636Z,96928.78
2022-08-19T06:54:20.403Z,96925.94
2022-08-19T06:56:47.519Z,96932.75
2022-08-19T06:59:17.471Z,96929.56
2022-08-19T07:01:50.619Z,96943.66
2022-08-19T07:04:22.822Z,96935.88
2022-08-19T07:06:55.356Z,96949.91
2022-08-19T07:09:22.705Z,96948.84
2022-08-19T07:11:51.235Z,96944.00
2022-08-19T07:14:20.878Z,96947.22
2022-08-19T07:16:49.299Z,96952.59
2022-08-19T07:19:18.640Z,96963.31
2022-08-19T07:21:47.349Z,96964.63
2022-08-19T07:24:14.011Z,96965.94
2022-08-19T07:26:42.735Z,96967.78
2022-08-19T07:29:09.814Z,96973.41
2022-08-19T07:31:37.923Z,96980.28
2022-08-19T07:34:07.755Z,96980.66
2022-08-19T07:36:37.795Z,96980.72
2022-08-19T07:39:11.240Z,96982.16
2022-08-19T07:41:38.516Z,96979.94
2022-08-19T07:44:08.321Z,96993.56
2022-08-19T07:46:38.522Z,96994.25
2022-08-19T07:49:06.673Z,96988.34
2022-08-19T07:51:36.923Z,96985.63
2022-08-19T07:54:04.347Z,96991.47
2022-08-19T07:56:37.202Z,96988.22
2022-08-19T07:59:05.136Z,96987.97
2022-08-19T08:01:31.961Z,96993.16
2022-08-19T08:04:17.108Z,96985.69
2022-08-19T08:07:02.805Z,96994.25
2022-08-19T08:09:35.986Z,96996.94
2022-08-19T08:12:32.527Z,96997.50
2022-08-19T08:15:08.281Z,96990.75
2022-08-19T08:17:49.513Z,96986.13
2022-08-19T08:20:18.938Z,96985.63
2022-08-19T08:23:05.954Z,96992.13
2022-08-19T08:25:32.732Z,96990.78
2022-08-19T08:28:01.256Z,96986.72
2022-08-19T08:30:31.241Z,96985.16
2022-08-19T08:32:59.960Z,96992.38
2022-08-19T08:35:26.526Z,96992.50
2022-08-19T08:37:54.732Z,96984.41
2022-08-19T08:40:29.087Z,96983.00
2022-08-19T08:43:11.632Z,96987.06
2022-08-19T08:49:42.035Z,96985.84
2022-08-19T08:52:37.328Z,96982.00
2022-08-19T08:55:10.665Z,96983.09
2022-08-19T08:57:42.516Z,96992.00
2022-08-19T09:00:15.364Z,96996.78
2022-08-19T09:02:43.371Z,96989.69
2022-08-19T09:05:11.090Z,97002.63
2022-08-19T09:07:58.477Z,96993.25
2022-08-19T09:10:43.944Z,96991.81
2022-08-19T09:13:37.194Z,96990.94
2022-08-19T09:16:18.239Z,96991.22
2022-08-19T09:19:02.781Z,96992.84
2022-08-19T09:21:33.462Z,96994.06
2022-08-19T09:24:04.631Z,96989.16
2022-08-19T09:26:47.503Z,96984.47
2022-08-19T09:29:19.648Z,96987.03
2022-08-19T09:31:49.211Z,96982.81
2022-08-19T09:34:21.304Z,96978.28
2022-08-19T09:36:50.516Z,96987.00
2022-08-19T09:39:18.029Z,96976.22
2022-08-19T09:41:47.265Z,96972.44
2022-08-19T09:44:15.364Z,96981.47
2022-08-19T09:46:41.897Z,96988.03
2022-08-19T09:49:08.423Z,96989.56
2022-08-19T09:51:35.189Z,96979.09
2022-08-19T09:54:05.318Z,96974.66
2022-08-19T09:56:32.707Z,96968.97
2022-08-19T09:59:02.251Z,96968.78
2022-08-19T10:01:30.425Z,96977.59
2022-08-19T10:03:58.803Z,96988.75
2022-08-19T10:06:43.957Z,96988.56
2022-08-19T10:09:13.289Z,96984.22
2022-08-19T10:11:54.487Z,96977.63
2022-08-19T10:14:24.524Z,96979.66
2022-08-19T10:16:52.493Z,96976.91
2022-08-19T10:19:25.599Z,96985.75
2022-08-19T10:21:53.513Z,96984.78
2022-08-19T10:24:21.666Z,96983.16
2022-08-19T10:26:56.029Z,96978.03
2022-08-19T10:29:33.001Z,96969.06
2022-08-19T10:32:05.532Z,96968.59
2022-08-19T10:34:48.345Z,96960.38
2022-08-19T10:37:23.539Z,96967.34
2022-08-19T10:39:51.243Z,96969.94
2022-08-19T10:42:19.536Z,96966.75
2022-08-19T10:44:47.662Z,96965.22
2022-08-19T10:47:17.876Z,96962.97
2022-08-19T10:50:11.785Z,96960.47
2022-08-19T10:52:39.236Z,96955.31
2022-08-19T10:55:25.803Z,96963.31
2022-08-19T10:58:03.205Z,96956.28
2022-08-19T11:00:31.939Z,96955.63
2022-08-19T11:02:58.490Z,96946.38
2022-08-19T11:05:25.267Z,96954.25
2022-08-19T11:07:52.619Z,96939.03
2022-08-19T11:10:21.847Z,96941.94
2022-08-19T11:12:49.248Z,96944.06
2022-08-19T11:15:16.288Z,96943.34
2022-08-19T11:17:44.822Z,96936.94
2022-08-19T11:20:15.801Z,96933.91
2022-08-19T11:22:43.207Z,96942.97
2022-08-19T11:25:11.736Z,96944.41
2022-08-19T11:27:40.704Z,96936.28
2022-08-19T11:30:08.632Z,96943.13
2022-08-19T11:32:42.647Z,96940.75
2022-08-19T11:35:12.562Z,96942.03
2022-08-19T11:37:39.227Z,96943.88
2022-08-19T11:40:07.388Z,96944.34
2022-08-19T11:42:52.714Z,96941.75
2022-08-19T11:45:19.307Z,96947.44
2022-08-19T11:47:47.166Z,96946.41
2022-08-19T11:50:14.040Z,96954.84
2022-08-19T11:52:40.607Z,96944.22
2022-08-19T11:55:08.136Z,96944.09
2022-08-19T11:57:34.677Z,96941.34
2022-08-19T12:00:02.502Z,96933.44
2022-08-19T12:02:29.052Z,96945.34
2022-08-19T12:04:55.664Z,96936.16
2022-08-19T12:07:22.181Z,96927.28
2022-08-19T12:09:48.884Z,96935.28
2022-08-19T12:12:15.559Z,96932.00
2022-08-19T12:14:42.142Z,96942.63
2022-08-19T12:17:10.030Z,96926.03
2022-08-19T12:19:37.980Z,96936.69
2022-08-19T12:22:04.630Z,96918.66
2022-08-19T12:24:32.632Z,96915.41
2022-08-19T12:27:03.066Z,96922.22
2022-08-19T12:29:30.693Z,96926.44
2022-08-19T12:32:02.233Z,96923.03
2022-08-19T12:34:31.350Z,96918.63
2022-08-19T12:36:59.418Z,96913.84
2022-08-19T12:39:26.592Z,96914.75
2022-08-19T12:41:54.702Z,96918.78
2022-08-19T12:44:28.779Z,96908.34
2022-08-19T12:46:56.911Z,96909.38
2022-08-19T12:49:54.491Z,96904.66
2022-08-19T12:52:11.874Z,96897.97
2022-08-19T12:54:40.817Z,96899.25
2022-08-19T12:57:11.480Z,96895.34
2022-08-19T12:59:38.659Z,96896.69
2022-08-19T13:02:07.090Z,96884.59
2022-08-19T13:04:37.260Z,96876.19
2022-08-19T13:07:04.444Z,96878.19
2022-08-19T13:09:30.969Z,96875.75
2022-08-19T13:11:57.836Z,96866.53
2022-08-19T13:14:24.391Z,96871.91
2022-08-19T13:16:53.592Z,96871.44
2022-08-19T13:19:22.000Z,96873.31
2022-08-19T13:21:51.476Z,96872.97
2022-08-19T13:24:27.739Z,96873.47
2022-08-19T13:27:01.539Z,96874.66
2022-08-19T13:29:46.757Z,96878.81
2022-08-19T13:32:32.009Z,96873.88
2022-08-19T13:34:58.639Z,96875.38
2022-08-19T13:37:42.136Z,96878.34
2022-08-19T13:40:30.085Z,96874.00
2022-08-19T13:42:56.619Z,96872.84
2022-08-19T13:45:25.587Z,96873.22
2022-08-19T13:47:59.279Z,96870.97
2022-08-19T13:50:32.469Z,96877.72
2022-08-19T13:52:59.433Z,96877.91
2022-08-19T13:55:26.636Z,96875.81
2022-08-19T13:57:57.918Z,96875.31
2022-08-19T14:00:27.402Z,96870.69
2022-08-19T14:02:56.672Z,96869.66
2022-08-19T14:05:23.622Z,96871.47
2022-08-19T14:07:50.281Z,96874.44
2022-08-19T14:10:17.616Z,96875.38
2022-08-19T14:12:44.243Z,96880.00
2022-08-19T14:15:12.654Z,96879.34
2022-08-19T14:17:40.437Z,96889.84
2022-08-19T14:20:10.903Z,96901.69
2022-08-19T14:22:40.012Z,96905.53
2022-08-19T14:25:09.023Z,96897.22
2022-08-19T14:27:36.577Z,96905.47
2022-08-19T14:30:04.780Z,96908.00
2022-08-19T14:32:31.308Z,96897.91
2022-08-19T14:34:57.829Z,96901.59
2022-08-19T14:37:24.357Z,96894.22
2022-08-19T14:39:51.735Z,96886.97
2022-08-19T14:42:18.555Z,96888.41
2022-08-19T14:44:45.084Z,96900.91
2022-08-19T14:47:11.963Z,96895.47
2022-08-19T14:49:43.905Z,96905.72
2022-08-19T14:52:13.754Z,96894.97
2022-08-19T14:54:40.290Z,96893.44
2022-08-19T14:57:06.935Z,96890.41
2022-08-19T14:59:35.593Z,96893.81
2022-08-19T15:02:34.230Z,96897.47
2022-08-19T15:04:58.363Z,96892.84
2022-08-19T15:07:29.193Z,96896.09
2022-08-19T15:09:56.661Z,96894.38
2022-08-19T15:12:23.585Z,96896.56
2022-08-19T15:14:51.897Z,96901.25
2022-08-19T15:17:25.747Z,96908.59
2022-08-19T15:20:08.555Z,96903.97
2022-08-19T15:22:36.472Z,96908.84
2022-08-19T15:25:05.000Z,96907.78
2022-08-19T15:27:31.851Z,96912.75
2022-08-19T15:30:01.180Z,96917.88
2022-08-19T15:32:29.049Z,96916.22
2022-08-19T15:34:55.785Z,96917.16
2022-08-19T15:37:25.310Z,96913.97
2022-08-19T15:39:51.972Z,96918.94
2022-08-19T15:42:28.090Z,96918.44
2022-08-19T15:45:00.530Z,96927.38
2022-08-19T15:47:34.889Z,96923.25
2022-08-19T15:50:13.061Z,96932.13
2022-08-19T15:52:50.389Z,96939.59
2022-08-19T15:55:33.673Z,96948.00
2022-08-19T15:58:28.371Z,96944.06
2022-08-19T16:01:24.456Z,96952.03
2022-08-19T16:04:15.583Z,96964.59
2022-08-19T16:06:48.171Z,96960.94
2022-08-19T16:09:15.887Z,96960.06
2022-08-19T16:11:45.727Z,96949.09
2022-08-19T16:14:16.785Z,96950.44
2022-08-19T16:16:46.655Z,96949.41
2022-08-19T16:19:15.877Z,96948.34
2022-08-19T16:21:43.901Z,96947.09
2022-08-19T16:24:13.162Z,96947.72
2022-08-19T16:26:41.111Z,96945.41
2022-08-19T16:29:13.116Z,96935.44
2022-08-19T16:31:42.209Z,96934.22
2022-08-19T16:34:09.218Z,96934.25
2022-08-19T16:36:36.096Z,96932.44
2022-08-19T16:39:03.518Z,96926.84
2022-08-19T16:41:30.079Z,96927.94
2022-08-19T16:43:56.631Z,96936.59
2022-08-19T16:46:26.966Z,96926.84
2022-08-19T16:48:54.483Z,96935.38
2022-08-19T16:51:22.702Z,96931.94
2022-08-19T16:53:53.110Z,96930.13
2022-08-19T16:56:21.203Z,96934.28
2022-08-19T16:58:50.206Z,96933.69
2022-08-19T17:01:17.264Z,96943.16
2022-08-19T17:03:43.961Z,96934.97
2022-08-19T17:06:20.390Z,96938.13
2022-08-19T17:08:49.498Z,96925.63
2022-08-19T17:11:19.106Z,96930.81
2022-08-19T17:13:48.068Z,96913.75
2022-08-19T17:16:16.938Z,96925.13
2022-08-19T17:18:43.902Z,96927.16
2022-08-19T17:21:13.127Z,96914.78
2022-08-19T17:23:42.710Z,96916.03
2022-08-19T17:26:16.769Z,96922.31
2022-08-19T17:28:46.165Z,96916.75
2022-08-19T17:31:12.701Z,96920.28
2022-08-19T17:33:41.557Z,96925.97
2022-08-19T17:36:09.084Z,96926.28
2022-08-19T17:38:36.884Z,96927.91
2022-08-19T17:41:06.367Z,96926.09
2022-08-19T17:43:36.536Z,96925.03
2022-08-19T17:46:05.617Z,96926.41
2022-08-19T17:48:38.771Z,96926.72
2022-08-19T17:51:18.799Z,96918.34
2022-08-19T17:53:50.627Z,96937.19
2022-08-19T17:56:17.663Z,96926.44
2022-08-19T17:58:46.614Z,96929.94
2022-08-19T18:01:24.805Z,96922.41
2022-08-19T18:03:52.860Z,96938.28
2022-08-19T18:06:19.387Z,96938.31
2022-08-19T18:08:49.005Z,96937.22
2022-08-19T18:11:16.411Z,96931.84
2022-08-19T18:13:43.262Z,96936.13
2022-08-19T18:16:11.166Z,96941.19
2022-08-19T18:18:39.592Z,96947.88
2022-08-19T18:21:07.087Z,96938.16
2022-08-19T18:23:44.682Z,96947.84
2022-08-19T18:26:12.776Z,96941.34
2022-08-19T18:28:43.273Z,96946.13
2022-08-19T18:31:17.165Z,96955.16
2022-08-19T18:33:44.931Z,96948.63
2022-08-19T18:36:11.849Z,96958.47
2022-08-19T18:38:56.956Z,96953.81
2022-08-19T18:41:42.254Z,96963.41
2022-08-19T18:44:28.500Z,96966.78
2022-08-19T18:47:13.774Z,96974.50
2022-08-19T18:49:40.536Z,96975.16
2022-08-19T18:52:07.536Z,96991.13
2022-08-19T18:54:34.479Z,96992.41
2022-08-19T18:57:01.342Z,96998.28
2022-08-19T18:59:30.294Z,96998.16
2022-08-19T19:01:58.935Z,96990.25
2022-08-19T19:04:36.153Z,97003.34
2022-08-19T19:07:04.952Z,96994.72
2022-08-19T19:09:31.606Z,96996.34
2022-08-19T19:12:01.173Z,97009.78
2022-08-19T19:14:48.596Z,97009.47
2022-08-19T19:17:16.499Z,97018.06
2022-08-19T19:19:43.971Z,97019.09
2022-08-19T19:22:13.006Z,97023.94
2022-08-19T19:24:40.758Z,97029.28
2022-08-19T19:27:12.494Z,97024.19
2022-08-19T19:29:40.097Z,97032.53
2022-08-19T19:32:11.859Z,97031.72
2022-08-19T19:34:38.785Z,97030.59
2022-08-19T19:37:05.691Z,97032.72
2022-08-19T19:39:46.346Z,97029.53
2022-08-19T19:42:19.751Z,97032.44
2022-08-19T19:44:48.895Z,97042.91
2022-08-19T19:47:16.111Z,97035.31
2022-08-19T19:50:03.816Z,97047.34
2022-08-19T19:52:29.713Z,97048.09
2022-08-19T19:54:56.992Z,97050.16
2022-08-19T19:57:23.836Z,97051.91
2022-08-19T19:59:51.670Z,97067.53
2022-08-19T20:02:18.453Z,97069.59
2022-08-19T20:04:45.311Z,97070.91
2022-08-19T20:07:11.877Z,97069.78
2022-08-19T20:09:58.346Z,97068.19
2022-08-19T20:12:24.959Z,97071.91
2022-08-19T20:14:51.466Z,97076.22
2022-08-19T20:17:20.495Z,97069.78
2022-08-19T20:19:47.981Z,97070.28
2022-08-19T20:22:14.751Z,97080.69
2022-08-19T20:24:42.705Z,97076.00
2022-08-19T20:27:10.177Z,97076.97
2022-08-19T20:29:41.664Z,97069.69
2022-08-19T20:32:12.492Z,97076.41
2022-08-19T20:34:40.081Z,97082.81
2022-08-19T20:37:09.466Z,97075.59
2022-08-19T20:39:36.613Z,97082.03
2022-08-19T20:42:03.557Z,97068.38
2022-08-19T20:44:30.093Z,97078.28
2022-08-19T20:47:00.509Z,97083.88
2022-08-19T20:49:29.617Z,97079.84
2022-08-19T20:51:56.525Z,97086.47
2022-08-19T20:54:24.125Z,97094.66
2022-08-19T20:56:51.748Z,97098.09
2022-08-19T20:59:20.068Z,97097.53
2022-08-19T21:01:47.760Z,97096.94
2022-08-19T21:04:14.596Z,97096.28
2022-08-19T21:06:42.206Z,97089.72
2022-08-19T21:09:12.008Z,97091.59
2022-08-19T21:11:38.831Z,97093.91
2022-08-19T21:14:05.475Z,97086.13
2022-08-19T21:16:33.802Z,97085.81
2022-08-19T21:19:00.617Z,97091.25
2022-08-19T21:21:27.381Z,97089.16
2022-08-19T21:23:53.943Z,97094.03
2022-08-19T21:26:20.773Z,97098.81
2022-08-19T21:28:47.394Z,97098.00
2022-08-19T21:31:15.205Z,97089.72
2022-08-19T21:33:41.857Z,97096.22
2022-08-19T21:36:08.844Z,97085.91
2022-08-19T21:38:35.699Z,97087.69
2022-08-19T21:41:06.182Z,97096.69
2022-08-19T21:43:33.433Z,97094.34
2022-08-19T21:45:59.998Z,97096.28
2022-08-19T21:48:26.585Z,97096.28
2022-08-19T21:50:53.136Z,97101.16
2022-08-19T21:53:22.956Z,97105.44
2022-08-19T21:55:53.494Z,97097.09
2022-08-19T21:58:28.187Z,97093.59
2022-08-19T22:00:57.680Z,97093.13
2022-08-19T22:03:25.712Z,97089.13
2022-08-19T22:05:52.384Z,97092.63
2022-08-19T22:08:18.914Z,97078.78
2022-08-19T22:10:45.537Z,97092.81
2022-08-19T22:13:13.306Z,97088.50
2022-08-19T22:15:41.043Z,97086.63
2022-08-19T22:18:07.558Z,97086.63
2022-08-19T22:20:34.188Z,97080.41
2022-08-19T22:23:03.754Z,97084.22
2022-08-19T22:25:33.715Z,97089.00
2022-08-19T22:28:01.994Z,97082.03
2022-08-19T22:30:33.176Z,97085.44
2022-08-19T22:33:03.781Z,97075.69
2022-08-19T22:35:32.524Z,97076.00
2022-08-19T22:37:59.877Z,97078.22
2022-08-19T22:40:29.027Z,97064.50
2022-08-19T22:43:04.944Z,97075.53
2022-08-19T22:45:33.474Z,97078.13
2022-08-19T22:48:00.439Z,97067.91
2022-08-19T22:50:27.014Z,97075.19
2022-08-19T22:52:59.889Z,97070.59
2022-08-19T22:55:27.748Z,97089.88
2022-08-19T22:57:54.904Z,97083.16
2022-08-19T23:00:27.937Z,97086.97
2022-08-19T23:02:56.315Z,97084.78
2022-08-19T23:05:26.054Z,97074.81
2022-08-19T23:07:54.364Z,97085.59
2022-08-19T23:10:27.593Z,97078.59
2022-08-19T23:12:57.678Z,97081.84
2022-08-19T23:15:29.439Z,97063.84
2022-08-19T23:18:01.761Z,97075.84
2022-08-19T23:20:32.560Z,97064.59
2022-08-19T23:23:01.047Z,97074.25
2022-08-19T23:25:30.936Z,97077.47
2022-08-19T23:28:16.451Z,97071.63
2022-08-19T23:30:46.466Z,97069.44
2022-08-19T23:33:24.294Z,97062.88
2022-08-19T23:35:56.731Z,97064.16
2022-08-19T23:38:24.745Z,97069.75
2022-08-19T23:40:53.332Z,97063.91
2022-08-19T23:43:25.189Z,97067.28
2022-08-19T23:45:52.164Z,97075.06
2022-08-19T23:48:18.780Z,97057.13
2022-08-19T23:50:46.162Z,97063.69
2022-08-19T23:53:13.410Z,97057.13
2022-08-19T23:55:47.262Z,97062.25
2022-08-19T23:58:15.522Z,97061.44
